Aérodrome :
LOGIN :

S'inscrire | Disclaimer

   EN    FR    IT 

 










Légende :    VFR   VFR Marginal   IFR   IFR Intensif   IFR Très Intensif
Visi : 
Plafond : 
>= 8 km
>= 3000ft
5 à 8 km
1000 à 3000 ft
1500m à 5 km
500 à 1000 ft
800 à 1500m
200 à 500 ft
< 800m
< 200 ft
Symboles :   Orages  Brouillard  Fortes neiges  Fortes précipitations  Vent > 20 kt
SIGMETs :   Divers  Orages  Givrage  Turbulence  Onde Orograph.  Cendres Volcan.







- Altitude de l'aérodrome : 364 ft
- Code IATA : FRA


EDDF - Frankfurt Int.

DERNIER METAR :
  • 242020Z 25005KT 9999 VCSH FEW014 FEW025CB 10/07 Q1008 NOSIG

METARs EXPIRÉS :
  • 241950Z 21008KT 190V250 9999 -SHRA FEW014 FEW025CB SCT049 10/07 Q1009 TEMPO 22015G25KT
  • 241920Z 23019KT 9999 VCSH FEW014 FEW025CB 10/07 Q1009 RESHRA BECMG 22015G25KT
  • 241850Z 22024G34KT 9999 FEW020 FEW025CB SCT030 12/07 Q1008 TEMPO 20020G35KT SHRA
  • 241820Z 23025KT 9999 FEW013 FEW025CB 12/07 Q1008 BECMG 24015G30KT
  • 241750Z 24030G46KT 9999 -SHRA VCTS FEW013 BKN025CB 13/08 Q1005 TEMPO SHRA

TAF AMD TAF EDDF
Valide du 24 à 19h jusqu'au 26 à 00h UTC


241904Z 2419/2524 23015G25KT 9999 BKN040
BECMG 2419/2421 23012KT
PROB40
TEMPO 2419/2421 SHRA BKN030CB
BECMG 2421/2423 16005KT
BECMG 2505/2507 08005KT
Pas de NOTAMs connus pour ce terrain.
1 SIGMET publié pour la FIR Langen (EDGG) :
 
Turbulence forte
EDGG SIGMET 8 VALID 241900/242200 EDZF
EDGG LANGEN FIR SEV TURB FCST WI N4954 E00812 - N4835 E00824 - N4752 E00730 - N4853 E00719 - N4926 E00620 - N4954 E00812 SFC/FL060 STNR WKN=



MET'MAP, la Météo Aéronautique d'un coup d'oeil ! - Copyright ORBIFLY Décembre 2007 - Disclaimer

ORBIFLY MET'MAP TEAM :

Programmation & Développement : Alexandra Zaïnal
Conception & Développement : Baudouin d'Aumeries
Co-Programmation & Développement : Marc-Olivier Méhu
Soutien technique & logistique : Manuel Goepfert

Contact : metmap@orbifly.com




SOURCES & CREDITS :

   NOAA